Time;durP1;ratioP1;P1;durP2;ratioP2;P2;SDS_P1;SDS_P2;PMS_P1;PMS_P2;Temp;Humidity;BMP_temperature;BMP_pressure;BME280_temperature;BME280_humidity;BME280_pressure;Samples;Min_cycle;Max_cycle;Signal;HPM_P1;HPM_P2
2024/01/01 00:00:30;;;;;;;13.67;6.10;;;;;;;7.98;100.00;99744.41;5356304;27;20067;-73
2024/01/01 00:03:01;;;;;;;20.23;6.90;;;;;;;8.05;100.00;99741.38;5321104;27;20057;-71
2024/01/01 00:05:32;;;;;;;19.47;5.00;;;;;;;7.97;100.00;99747.97;5360234;27;20026;-70
2024/01/01 00:08:04;;;;;;;9.87;3.33;;;;;;;8.07;100.00;99758.59;5360327;27;20090;-76
2024/01/01 00:10:35;;;;;;;11.73;3.50;;;;;;;7.93;100.00;99769.94;5343201;27;20106;-73
2024/01/01 00:13:06;;;;;;;10.87;3.53;;;;;;;7.86;100.00;99771.28;5349451;27;20051;-79
2024/01/01 00:15:38;;;;;;;9.70;2.43;;;;;;;7.82;100.00;99755.00;5350966;27;20388;-75
2024/01/01 00:18:09;;;;;;;6.80;1.97;;;;;;;7.68;100.00;99763.72;5355524;27;20022;-73
2024/01/01 00:20:40;;;;;;;6.70;2.57;;;;;;;7.63;100.00;99777.06;5357274;27;20019;-77
2024/01/01 00:23:12;;;;;;;11.07;2.73;;;;;;;7.50;100.00;99782.22;5349572;27;20726;-75
2024/01/01 00:25:43;;;;;;;7.43;2.50;;;;;;;7.49;100.00;99783.16;5361018;27;20022;-72
2024/01/01 00:28:14;;;;;;;4.73;2.23;;;;;;;7.45;100.00;99773.88;5334882;27;20109;-76
2024/01/01 00:30:45;;;;;;;8.70;2.77;;;;;;;7.41;100.00;99780.22;5353712;27;20075;-73
2024/01/01 00:33:17;;;;;;;8.77;3.50;;;;;;;7.28;100.00;99768.91;5358704;27;20102;-71
2024/01/01 00:35:49;;;;;;;7.00;3.00;;;;;;;7.18;100.00;99781.66;5360337;27;20023;-74
2024/01/01 00:38:20;;;;;;;11.97;3.03;;;;;;;7.26;100.00;99780.25;5351977;27;20018;-69
2024/01/01 00:40:51;;;;;;;8.67;3.33;;;;;;;7.30;100.00;99775.69;5359914;27;20385;-73
2024/01/01 00:43:22;;;;;;;5.70;3.17;;;;;;;7.11;100.00;99771.66;5355178;27;20092;-71
2024/01/01 00:45:54;;;;;;;5.93;3.60;;;;;;;7.08;100.00;99784.00;5328012;27;20007;-69
2024/01/01 00:48:25;;;;;;;8.07;3.33;;;;;;;7.01;100.00;99767.94;5357390;27;20106;-70
2024/01/01 00:50:56;;;;;;;8.33;2.77;;;;;;;6.98;100.00;99783.75;5334012;27;20011;-69
2024/01/01 00:53:27;;;;;;;8.23;2.87;;;;;;;6.90;100.00;99769.44;5348827;27;20710;-69
2024/01/01 11:29:24;;;;;;;19.10;4.47;;;;;;;7.19;100.00;100356.31;5270871;28;20929;-70
2024/01/01 11:32:03;;;;;;;20.33;4.77;;;;;;;7.22;100.00;100354.38;5259146;28;20446;-70
2024/01/01 11:34:37;;;;;;;14.87;3.77;;;;;;;7.32;100.00;100356.47;5267298;28;20039;-71
2024/01/01 11:37:08;;;;;;;25.05;6.45;;;;;;;7.34;100.00;100362.44;5260344;28;20560;-70
2024/01/01 11:39:39;;;;;;;16.87;5.03;;;;;;;7.36;100.00;100364.06;5254737;28;20021;-74
2024/01/01 11:42:18;;;;;;;16.87;3.50;;;;;;;7.40;100.00;100359.50;5271064;28;20036;-72
2024/01/01 11:44:49;;;;;;;19.83;6.03;;;;;;;7.33;100.00;100353.78;5266632;28;20541;-73
2024/01/01 11:47:21;;;;;;;18.73;4.43;;;;;;;7.44;100.00;100361.00;5257485;28;20029;-69
2024/01/01 11:49:55;;;;;;;18.93;4.47;;;;;;;7.61;100.00;100372.31;5252952;28;20028;-71
2024/01/01 11:52:26;;;;;;;21.63;4.18;;;;;;;7.60;100.00;100375.81;5270665;28;20025;-70
2024/01/01 11:54:57;;;;;;;14.50;3.97;;;;;;;7.57;100.00;100374.22;5270401;28;20118;-73
2024/01/01 11:57:29;;;;;;;20.00;4.97;;;;;;;7.55;100.00;100380.44;5257251;28;20619;-74
2024/01/01 12:00:00;;;;;;;23.30;5.73;;;;;;;7.63;100.00;100378.25;5271359;28;20029;-74
2024/01/01 12:02:33;;;;;;;17.97;5.23;;;;;;;7.61;100.00;100377.50;5264915;28;20076;-70
2024/01/01 12:05:04;;;;;;;16.77;3.67;;;;;;;7.57;100.00;100365.56;5266913;28;20699;-72
2024/01/01 12:07:36;;;;;;;17.73;4.30;;;;;;;7.54;100.00;100363.94;5265091;28;20039;-71
2024/01/01 12:10:13;;;;;;;16.10;5.17;;;;;;;7.70;100.00;100365.72;5268104;28;20035;-73
2024/01/01 12:12:45;;;;;;;21.80;5.37;;;;;;;7.78;100.00;100373.13;5285541;28;20067;-74
2024/01/01 12:15:18;;;;;;;16.60;3.97;;;;;;;7.85;100.00;100377.06;5269055;28;20667;-74
2024/01/01 12:17:51;;;;;;;15.13;4.33;;;;;;;7.81;100.00;100365.13;5269854;28;20511;-75
2024/01/01 12:20:24;;;;;;;17.63;4.47;;;;;;;7.90;100.00;100376.81;5270592;28;20079;-74
2024/01/01 12:23:24;;;;;;;18.83;4.43;;;;;;;7.99;100.00;100366.69;5270276;28;20434;-73
2024/01/01 12:26:05;;;;;;;23.00;5.67;;;;;;;7.96;100.00;100371.22;5259608;28;20495;-71
2024/01/01 12:28:39;;;;;;;25.60;4.77;;;;;;;8.00;100.00;100375.34;5278446;28;20040;-75
2024/01/01 12:31:10;;;;;;;21.38;5.57;;;;;;;8.02;100.00;100380.47;5269931;28;20044;-74
2024/01/01 12:33:49;;;;;;;18.00;5.00;;;;;;;7.99;100.00;100379.72;5263746;28;20479;-75
2024/01/01 12:36:20;;;;;;;21.50;4.97;;;;;;;7.95;100.00;100380.84;5270381;28;20506;-73
2024/01/01 12:38:52;;;;;;;19.53;5.37;;;;;;;7.96;100.00;100372.06;5254513;28;20029;-74
2024/01/01 12:41:23;;;;;;;19.43;4.70;;;;;;;8.06;100.00;100375.03;5251610;28;20029;-75
2024/01/01 12:43:57;;;;;;;21.77;5.20;;;;;;;8.16;100.00;100382.31;5256877;28;20025;-76
2024/01/01 12:46:29;;;;;;;21.15;5.47;;;;;;;8.14;100.00;100378.94;5255730;28;20139;-74
2024/01/01 12:49:00;;;;;;;23.07;4.97;;;;;;;8.09;100.00;100372.22;5256486;28;20028;-74
2024/01/01 12:51:32;;;;;;;20.93;4.53;;;;;;;8.09;100.00;100376.59;5254442;28;20382;-74
2024/01/01 12:54:03;;;;;;;22.60;5.33;;;;;;;8.12;100.00;100392.06;5256439;28;20083;-72
2024/01/01 12:56:35;;;;;;;21.67;5.50;;;;;;;8.13;100.00;100378.13;5255463;28;20032;-74
2024/01/01 12:59:06;;;;;;;26.57;6.77;;;;;;;8.10;100.00;100383.50;5254269;28;20036;-74
2024/01/01 13:01:37;;;;;;;24.43;4.63;;;;;;;8.18;100.00;100380.47;5264491;28;20021;-69
2024/01/01 13:04:09;;;;;;;18.43;4.93;;;;;;;8.16;100.00;100380.56;5250304;28;20036;-70
2024/01/01 13:06:40;;;;;;;22.97;5.07;;;;;;;8.04;100.00;100386.47;5235969;28;20055;-72
2024/01/01 13:09:11;;;;;;;16.60;4.87;;;;;;;8.02;100.00;100376.13;5241390;28;20017;-74
2024/01/01 13:11:44;;;;;;;24.07;5.87;;;;;;;8.02;100.00;100385.69;5256227;28;20031;-74
2024/01/01 13:14:15;;;;;;;22.47;5.57;;;;;;;7.89;100.00;100381.16;5255545;28;20021;-74
2024/01/01 13:16:48;;;;;;;26.07;5.80;;;;;;;7.98;100.00;100391.09;5254504;28;20545;-76
2024/01/01 13:19:21;;;;;;;19.17;5.47;;;;;;;8.01;100.00;100394.47;5256124;28;20028;-76
2024/01/01 13:21:52;;;;;;;20.47;5.47;;;;;;;8.08;100.00;100398.41;5255878;28;20626;-74
2024/01/01 13:24:24;;;;;;;22.53;5.20;;;;;;;8.08;100.00;100388.78;5254363;28;20032;-72
2024/01/01 13:26:58;;;;;;;21.13;6.43;;;;;;;8.11;100.00;100400.84;5255234;28;20064;-73
2024/01/01 13:29:30;;;;;;;;;;;;;;;8.30;100.00;100405.00;5255902;28;20025;-71
2024/01/01 13:32:01;;;;;;;23.57;5.30;;;;;;;8.05;100.00;100414.22;5254861;28;19916;-74
2024/01/01 13:34:32;;;;;;;17.57;5.77;;;;;;;8.05;100.00;100412.44;5246362;28;20036;-72
2024/01/01 13:37:04;;;;;;;19.63;5.97;;;;;;;7.86;100.00;100405.66;5247212;28;20123;-72
2024/01/01 13:39:37;;;;;;;25.10;6.13;;;;;;;7.95;100.00;100401.69;5259248;28;20025;-74
2024/01/01 13:42:08;;;;;;;23.33;6.27;;;;;;;7.84;100.00;100411.88;5254148;28;20021;-71
2024/01/01 13:44:39;;;;;;;28.30;6.03;;;;;;;7.78;100.00;100393.97;5251714;28;20218;-72
2024/01/01 13:47:11;;;;;;;30.80;6.00;;;;;;;7.99;100.00;100412.81;5232715;28;20025;-70
2024/01/01 13:49:42;;;;;;;21.40;5.73;;;;;;;7.80;100.00;100398.16;5239695;28;20032;-68
2024/01/01 13:52:13;;;;;;;19.87;6.43;;;;;;;7.71;100.00;100409.97;5235123;28;20563;-71
2024/01/01 13:54:45;;;;;;;17.97;5.20;;;;;;;7.84;100.00;100420.53;5233962;28;20092;-71
2024/01/01 13:57:16;;;;;;;23.77;5.57;;;;;;;7.74;100.00;100407.19;5243523;28;20376;-69
2024/01/01 13:59:47;;;;;;;24.23;6.33;;;;;;;7.78;100.00;100422.66;5233072;28;20066;-72
2024/01/01 14:02:18;;;;;;;22.10;4.87;;;;;;;7.72;100.00;100422.06;5248496;28;20021;-72
2024/01/01 14:04:50;;;;;;;32.63;6.37;;;;;;;7.75;100.00;100428.84;5250721;28;20033;-71
2024/01/01 14:07:22;;;;;;;25.83;6.47;;;;;;;7.83;100.00;100426.69;5250251;28;20575;-69
2024/01/01 14:09:53;;;;;;;18.30;5.43;;;;;;;7.68;100.00;100436.19;5244097;28;20024;-70
2024/01/01 14:12:24;;;;;;;22.53;5.53;;;;;;;7.68;100.00;100430.97;5253536;28;20024;-70
2024/01/01 14:14:56;;;;;;;20.23;5.10;;;;;;;7.71;100.00;100430.81;5252784;28;20033;-69
2024/01/01 14:17:27;;;;;;;26.00;5.70;;;;;;;7.83;100.00;100433.66;5252076;28;20058;-70
2024/01/01 14:19:58;;;;;;;21.67;4.97;;;;;;;7.83;100.00;100433.66;5249530;28;20811;-71
2024/01/01 14:22:30;;;;;;;18.23;4.60;;;;;;;7.77;100.00;100428.81;5239408;28;20037;-69
2024/01/01 14:25:02;;;;;;;21.80;5.63;;;;;;;7.82;100.00;100450.25;5243247;28;20259;-69
2024/01/01 14:27:34;;;;;;;21.83;5.37;;;;;;;7.87;100.00;100446.44;5235844;28;20046;-68
2024/01/01 14:30:06;;;;;;;21.43;5.87;;;;;;;7.75;100.00;100447.09;5242769;28;20533;-71
2024/01/01 14:32:38;;;;;;;19.93;4.47;;;;;;;7.62;100.00;100436.53;5231366;28;20127;-70
2024/01/01 14:35:11;;;;;;;17.37;6.27;;;;;;;7.67;100.00;100447.53;5239974;28;20626;-70
2024/01/01 14:37:43;;;;;;;23.67;7.70;;;;;;;7.53;100.00;100444.81;5246726;28;20021;-68
2024/01/01 14:40:15;;;;;;;21.27;5.50;;;;;;;7.48;100.00;100432.03;5233277;28;20479;-70
2024/01/01 14:42:47;;;;;;;19.20;5.63;;;;;;;7.49;100.00;100450.19;5247051;28;20464;-69
2024/01/01 14:45:18;;;;;;;23.10;6.03;;;;;;;7.61;100.00;100463.53;5235666;28;20029;-70
2024/01/01 14:47:50;;;;;;;20.97;5.07;;;;;;;7.45;100.00;100464.31;5249377;28;20064;-70
2024/01/01 14:50:22;;;;;;;23.07;6.33;;;;;;;7.34;100.00;100474.47;5245111;28;20026;-71
2024/01/01 14:52:55;;;;;;;28.00;6.47;;;;;;;7.40;100.00;100468.09;5249618;28;20391;-67
2024/01/01 14:55:28;;;;;;;18.50;4.43;;;;;;;7.09;100.00;100439.25;5236692;28;20036;-70
2024/01/01 14:57:59;;;;;;;16.33;4.07;;;;;;;7.22;100.00;100471.59;5245651;28;20031;-73
2024/01/01 15:00:31;;;;;;;21.50;5.60;;;;;;;7.22;100.00;100482.00;5239262;28;20371;-71
2024/01/01 15:03:03;;;;;;;24.10;4.50;;;;;;;7.18;100.00;100483.06;5263058;28;20031;-71
2024/01/01 15:05:34;;;;;;;16.97;4.30;;;;;;;7.16;100.00;100487.50;5254503;28;20527;-67
2024/01/01 15:08:08;;;;;;;19.00;5.13;;;;;;;7.07;100.00;100478.41;5252576;28;20055;-73
2024/01/01 15:10:39;;;;;;;16.63;4.22;;;;;;;7.07;100.00;100477.59;5253598;28;20021;-69
2024/01/01 15:13:10;;;;;;;16.23;4.73;;;;;;;7.08;100.00;100472.28;5253538;28;20357;-69
2024/01/01 15:15:42;;;;;;;17.17;3.47;;;;;;;7.10;100.00;100480.03;5252576;28;20024;-70
2024/01/01 15:18:13;;;;;;;18.27;3.80;;;;;;;6.98;100.00;100477.09;5238878;28;20020;-67
2024/01/01 15:20:44;;;;;;;17.93;4.30;;;;;;;7.06;100.00;100486.31;5254171;28;20029;-69
2024/01/01 15:23:16;;;;;;;18.90;4.57;;;;;;;7.06;100.00;100478.50;5237747;28;20013;-68
2024/01/01 15:25:48;;;;;;;24.83;5.10;;;;;;;6.95;100.00;100473.81;5235281;28;20083;-69
2024/01/01 15:28:19;;;;;;;19.53;4.77;;;;;;;6.96;100.00;100481.56;5242154;28;20041;-69
2024/01/01 15:30:50;;;;;;;16.40;5.50;;;;;;;6.99;100.00;100485.78;5242300;28;20017;-70
2024/01/01 15:33:24;;;;;;;16.77;4.10;;;;;;;6.98;100.00;100491.91;5232479;28;20238;-70
2024/01/01 15:35:56;;;;;;;17.00;4.10;;;;;;;7.03;100.00;100495.13;5265043;28;20840;-68
2024/01/01 15:38:27;;;;;;;15.73;4.07;;;;;;;6.95;100.00;100511.13;5232373;28;20125;-68
2024/01/01 15:40:58;;;;;;;17.03;4.20;;;;;;;6.92;100.00;100506.06;5232393;28;20029;-66
2024/01/01 15:43:29;;;;;;;16.47;4.23;;;;;;;6.92;100.00;100521.69;5231385;28;20021;-70
2024/01/01 15:46:04;;;;;;;19.93;4.93;;;;;;;7.01;100.00;100520.41;5231679;28;20084;-68
2024/01/01 15:48:35;;;;;;;23.25;5.22;;;;;;;6.91;100.00;100525.22;5231844;28;20067;-71
2024/01/01 15:51:06;;;;;;;16.73;4.73;;;;;;;6.96;100.00;100527.59;5232096;28;20033;-70
2024/01/01 15:53:38;;;;;;;16.60;4.67;;;;;;;6.93;100.00;100535.56;5263760;28;20025;-67
2024/01/01 15:56:09;;;;;;;17.97;5.27;;;;;;;6.91;100.00;100543.44;5247549;28;20091;-69
2024/01/01 15:58:42;;;;;;;20.87;4.30;;;;;;;6.88;100.00;100533.16;5239126;28;20031;-67
2024/01/01 16:01:14;;;;;;;12.57;4.47;;;;;;;6.90;100.00;100532.19;5245146;28;20507;-67
2024/01/01 16:03:46;;;;;;;22.93;4.80;;;;;;;6.77;100.00;100508.50;5236402;28;20131;-70
2024/01/01 16:06:17;;;;;;;21.07;4.90;;;;;;;6.85;100.00;100539.38;5240700;28;20032;-67
2024/01/01 16:08:48;;;;;;;17.67;4.37;;;;;;;6.87;100.00;100539.31;5232413;28;20021;-69
2024/01/01 16:11:21;;;;;;;15.37;4.00;;;;;;;6.84;100.00;100545.50;5252482;28;20024;-68
2024/01/01 16:13:53;;;;;;;18.07;4.23;;;;;;;6.88;100.00;100538.38;5249116;28;20025;-69
2024/01/01 16:16:25;;;;;;;14.97;3.50;;;;;;;6.88;100.00;100536.63;5252386;28;20025;-69
2024/01/01 16:18:56;;;;;;;23.67;5.03;;;;;;;6.83;100.00;100553.38;5242588;28;20079;-72
2024/01/01 16:21:27;;;;;;;13.73;4.57;;;;;;;6.87;100.00;100545.38;5249149;28;20122;-69
2024/01/01 16:23:59;;;;;;;20.10;3.83;;;;;;;6.87;100.00;100540.16;5251932;28;20032;-67
2024/01/01 16:26:30;;;;;;;17.23;4.50;;;;;;;6.86;100.00;100548.88;5255482;28;20067;-67
2024/01/01 16:29:01;;;;;;;15.00;4.20;;;;;;;6.87;100.00;100544.50;5255691;28;20045;-68
2024/01/01 16:31:33;;;;;;;16.17;3.77;;;;;;;6.82;100.00;100536.09;5251913;28;20017;-67
2024/01/01 16:34:04;;;;;;;18.23;5.10;;;;;;;6.81;100.00;100539.63;5249001;28;20028;-67
2024/01/01 16:36:35;;;;;;;18.60;4.30;;;;;;;6.77;100.00;100549.34;5287661;28;20448;-69
2024/01/01 16:39:07;;;;;;;24.50;4.20;;;;;;;6.74;100.00;100544.25;5254579;28;20536;-69
2024/01/01 16:41:38;;;;;;;15.23;4.57;;;;;;;6.81;100.00;100535.22;5254039;28;20120;-68
2024/01/01 16:44:10;;;;;;;14.53;4.00;;;;;;;6.77;100.00;100550.16;5269022;28;20025;-69
2024/01/01 16:46:41;;;;;;;14.13;4.63;;;;;;;6.73;100.00;100548.63;5280703;28;20028;-68
2024/01/01 16:49:12;;;;;;;14.27;4.73;;;;;;;6.70;100.00;100548.78;5255282;28;20049;-68
2024/01/01 16:51:46;;;;;;;17.93;6.87;;;;;;;6.65;100.00;100553.34;5256011;28;20025;-68
2024/01/01 16:54:17;;;;;;;24.83;12.23;;;;;;;6.56;100.00;100528.63;5255106;28;20017;-68
2024/01/01 16:56:49;;;;;;;23.57;8.27;;;;;;;6.65;100.00;100537.72;5255758;28;20467;-68
2024/01/01 16:59:20;;;;;;;22.00;7.47;;;;;;;6.65;100.00;100540.34;5245822;28;20070;-71
2024/01/01 17:01:51;;;;;;;18.13;5.60;;;;;;;6.70;100.00;100545.34;5244125;28;20030;-70
2024/01/01 17:04:22;;;;;;;17.80;5.37;;;;;;;6.80;100.00;100550.94;5239776;28;20505;-71
2024/01/01 17:06:54;;;;;;;13.30;4.07;;;;;;;6.71;100.00;100547.88;5243572;28;20521;-68
2024/01/01 17:09:25;;;;;;;21.30;5.43;;;;;;;6.64;100.00;100549.91;5240232;28;20087;-68
2024/01/01 17:11:56;;;;;;;13.10;4.23;;;;;;;6.64;100.00;100543.88;5256018;28;20074;-68
2024/01/01 17:14:28;;;;;;;19.33;4.40;;;;;;;6.58;100.00;100545.00;5235754;28;20105;-69
2024/01/01 17:16:59;;;;;;;27.30;5.57;;;;;;;6.60;100.00;100539.72;5250982;28;20036;-69
2024/01/01 17:19:34;;;;;;;13.83;3.07;;;;;;;6.60;100.00;100537.09;5250262;28;20384;-67
2024/01/01 17:22:05;;;;;;;;;;;;;;;6.83;100.00;100549.03;5247121;28;20037;-69
2024/01/01 17:24:36;;;;;;;11.47;4.10;;;;;;;6.64;100.00;100549.91;5250524;28;19916;-67
2024/01/01 17:27:08;;;;;;;12.07;3.57;;;;;;;6.54;100.00;100543.47;5239190;28;20047;-69
2024/01/01 17:29:39;;;;;;;12.40;4.03;;;;;;;6.57;100.00;100558.06;5251507;28;20037;-70
2024/01/01 17:32:11;;;;;;;15.83;5.77;;;;;;;6.58;100.00;100562.38;5247492;28;20706;-68
2024/01/01 17:34:42;;;;;;;15.87;4.50;;;;;;;6.58;100.00;100562.38;5251636;28;20544;-71
2024/01/01 17:37:14;;;;;;;15.00;3.97;;;;;;;6.55;100.00;100565.97;5246016;28;20426;-67
2024/01/01 17:39:45;;;;;;;17.97;4.47;;;;;;;6.58;100.00;100567.59;5249564;28;20427;-68
2024/01/01 17:42:17;;;;;;;14.80;3.17;;;;;;;6.56;100.00;100561.59;5239406;28;20036;-69
2024/01/01 17:44:50;;;;;;;20.57;6.30;;;;;;;6.51;100.00;100561.84;5247803;28;20016;-68
2024/01/01 17:47:21;;;;;;;14.90;3.73;;;;;;;6.49;100.00;100567.09;5235258;28;20048;-69
2024/01/01 17:49:52;;;;;;;23.93;7.77;;;;;;;6.45;100.00;100560.34;5240280;28;20021;-68
2024/01/01 17:52:24;;;;;;;20.27;5.57;;;;;;;6.41;100.00;100559.66;5251444;28;20029;-68
2024/01/01 17:54:55;;;;;;;13.90;4.17;;;;;;;6.40;100.00;100560.59;5247878;28;20028;-69
2024/01/01 17:57:26;;;;;;;17.53;4.97;;;;;;;6.21;100.00;100552.78;5249470;28;20025;-67
2024/01/01 17:59:58;;;;;;;15.27;3.97;;;;;;;6.33;100.00;100566.13;5249755;28;20069;-68
2024/01/01 18:02:29;;;;;;;22.87;4.30;;;;;;;6.35;100.00;100565.16;5240535;28;20063;-68
2024/01/01 18:05:05;;;;;;;17.07;5.00;;;;;;;6.38;100.00;100571.97;5248139;28;20062;-68
2024/01/01 18:07:40;;;;;;;21.27;4.43;;;;;;;6.33;100.00;100555.72;5232266;28;20476;-68
2024/01/01 18:10:12;;;;;;;17.47;3.77;;;;;;;6.34;100.00;100562.59;5247416;28;20048;-70
2024/01/01 18:12:44;;;;;;;20.83;4.70;;;;;;;6.38;100.00;100570.22;5244730;28;20022;-67
2024/01/01 18:15:18;;;;;;;13.93;4.83;;;;;;;6.40;100.00;100559.72;5246858;28;20079;-69
2024/01/01 18:17:50;;;;;;;18.10;3.88;;;;;;;6.32;100.00;100556.66;5245846;28;20031;-69
2024/01/01 18:20:21;;;;;;;13.37;4.20;;;;;;;6.32;100.00;100554.06;5243184;28;20099;-67
2024/01/01 18:22:52;;;;;;;9.47;3.37;;;;;;;6.36;100.00;100560.78;5250437;28;20538;-69
2024/01/01 18:25:24;;;;;;;16.47;5.17;;;;;;;6.33;100.00;100564.38;5259388;28;20086;-72
2024/01/01 18:27:55;;;;;;;17.43;3.87;;;;;;;6.19;100.00;100533.81;5250399;28;20057;-71
2024/01/01 18:30:26;;;;;;;16.63;3.30;;;;;;;6.30;100.00;100561.94;5249877;28;20375;-70
2024/01/01 18:32:57;;;;;;;11.77;3.47;;;;;;;6.24;100.00;100549.19;5252918;28;20616;-70
2024/01/01 18:35:29;;;;;;;13.47;4.70;;;;;;;6.26;100.00;100556.03;5251410;28;20028;-71
2024/01/01 18:38:00;;;;;;;15.10;3.20;;;;;;;6.25;100.00;100554.31;5245942;28;20066;-71
2024/01/01 18:40:31;;;;;;;12.27;3.13;;;;;;;6.01;100.00;100527.66;5252302;28;20025;-70
2024/01/01 18:43:03;;;;;;;13.93;3.43;;;;;;;6.23;100.00;100539.72;5247998;28;20026;-70
2024/01/01 18:45:34;;;;;;;18.37;3.90;;;;;;;6.26;100.00;100540.41;5244588;28;20052;-70
2024/01/01 18:48:06;;;;;;;12.00;3.30;;;;;;;6.28;100.00;100535.97;5243785;28;20047;-74
2024/01/01 18:50:37;;;;;;;14.53;3.27;;;;;;;6.29;100.00;100539.41;5243544;28;20825;-70
2024/01/01 18:53:08;;;;;;;13.30;3.50;;;;;;;6.25;100.00;100528.31;5250415;28;20032;-71
2024/01/01 18:55:41;;;;;;;12.40;3.57;;;;;;;6.34;100.00;100531.38;5250293;28;20144;-73
2024/01/01 18:58:12;;;;;;;9.43;2.53;;;;;;;6.36;100.00;100529.56;5253826;28;20033;-70
2024/01/01 19:00:44;;;;;;;9.80;2.80;;;;;;;6.37;100.00;100531.28;5250584;28;20445;-67
2024/01/01 19:03:15;;;;;;;11.10;2.20;;;;;;;6.37;100.00;100520.88;5244370;28;20040;-69
2024/01/01 19:05:46;;;;;;;8.70;2.83;;;;;;;6.36;100.00;100504.41;5236339;28;20110;-69
2024/01/01 19:08:18;;;;;;;10.97;2.77;;;;;;;6.41;100.00;100511.97;5244405;28;20036;-70
2024/01/01 19:10:49;;;;;;;10.90;2.53;;;;;;;6.44;100.00;100514.44;5249593;28;20849;-71
2024/01/01 19:13:20;;;;;;;13.53;2.63;;;;;;;6.41;100.00;100491.16;5237240;28;20877;-72
2024/01/01 19:15:51;;;;;;;7.53;2.40;;;;;;;6.48;100.00;100499.50;5248733;28;20471;-70
2024/01/01 19:18:24;;;;;;;11.13;2.00;;;;;;;6.50;100.00;100495.09;5258575;28;20091;-69
2024/01/01 19:20:55;;;;;;;6.33;2.00;;;;;;;6.58;100.00;100502.53;5244865;28;20048;-71
2024/01/01 19:23:26;;;;;;;9.03;2.37;;;;;;;6.57;100.00;100506.03;5252786;28;20104;-72
2024/01/01 19:25:58;;;;;;;5.47;1.43;;;;;;;6.60;100.00;100498.06;5250943;28;20021;-71
2024/01/01 19:28:29;;;;;;;5.47;1.60;;;;;;;6.59;100.00;100497.25;5243310;28;20061;-68
2024/01/01 19:31:00;;;;;;;5.77;1.73;;;;;;;6.62;100.00;100504.06;5248944;28;20025;-69
2024/01/01 19:33:31;;;;;;;6.03;2.20;;;;;;;6.65;100.00;100496.09;5249904;28;20037;-68
2024/01/01 19:36:03;;;;;;;4.03;1.53;;;;;;;6.63;100.00;100503.16;5250952;28;20048;-68
2024/01/01 19:38:35;;;;;;;5.10;1.87;;;;;;;6.72;100.00;100504.47;5266382;28;20112;-69
2024/01/01 19:41:07;;;;;;;5.00;1.40;;;;;;;6.65;100.00;100491.75;5249435;28;20487;-70
2024/01/01 19:43:38;;;;;;;5.17;1.43;;;;;;;6.71;100.00;100497.56;5245735;28;20032;-69
2024/01/01 19:46:17;;;;;;;8.77;2.27;;;;;;;6.72;100.00;100494.88;5245870;28;20064;-70
2024/01/01 19:48:49;;;;;;;4.77;1.40;;;;;;;6.68;100.00;100480.34;5244999;28;20037;-68
2024/01/01 19:51:20;;;;;;;4.27;1.63;;;;;;;6.69;100.00;100486.38;5255790;28;20412;-69
2024/01/01 19:53:51;;;;;;;4.03;1.20;;;;;;;6.75;100.00;100480.88;5253882;28;20037;-71
2024/01/01 19:56:25;;;;;;;8.97;2.53;;;;;;;6.71;100.00;100468.94;5255107;28;20439;-74
2024/01/01 19:58:57;;;;;;;7.22;2.33;;;;;;;6.69;100.00;100469.00;5252345;28;20017;-71
2024/01/01 20:01:28;;;;;;;6.77;2.03;;;;;;;6.68;100.00;100458.69;5247218;28;20071;-70
2024/01/01 20:03:59;;;;;;;9.13;1.67;;;;;;;6.67;100.00;100454.41;5250735;28;20027;-70
2024/01/01 20:06:31;;;;;;;6.70;2.40;;;;;;;6.59;100.00;100452.16;5256133;28;20029;-75
2024/01/01 20:09:02;;;;;;;4.80;2.43;;;;;;;6.54;100.00;100450.63;5253593;28;20029;-70
2024/01/01 20:11:34;;;;;;;6.60;2.23;;;;;;;6.61;100.00;100456.41;5242231;28;20107;-71
2024/01/01 20:14:07;;;;;;;5.43;2.00;;;;;;;6.63;100.00;100445.91;5254091;28;20028;-73
2024/01/01 20:16:38;;;;;;;12.10;2.10;;;;;;;6.54;100.00;100450.63;5255486;28;20021;-69
2024/01/01 20:19:11;;;;;;;10.20;2.73;;;;;;;6.57;100.00;100451.41;5241956;28;20028;-71
2024/01/01 20:21:42;;;;;;;7.77;2.37;;;;;;;6.65;100.00;100441.44;5256550;28;20024;-69
2024/01/01 20:24:17;;;;;;;11.23;2.87;;;;;;;6.56;100.00;100441.91;5236040;28;20029;-71
2024/01/01 20:26:48;;;;;;;12.05;4.18;;;;;;;6.48;100.00;100430.13;5281590;28;20052;-72
2024/01/01 20:29:19;;;;;;;13.20;4.03;;;;;;;6.49;100.00;100397.97;5238084;28;20644;-73
2024/01/01 20:31:51;;;;;;;14.57;4.07;;;;;;;6.49;100.00;100405.78;5251949;28;20035;-70
2024/01/01 20:34:23;;;;;;;14.80;3.80;;;;;;;6.53;100.00;100411.66;5252046;28;20573;-70
2024/01/01 20:36:54;;;;;;;15.03;4.70;;;;;;;6.45;100.00;100409.47;5254239;28;20029;-70
2024/01/01 20:39:26;;;;;;;16.70;6.07;;;;;;;6.52;100.00;100416.06;5252236;28;20059;-70
2024/01/01 20:41:57;;;;;;;16.63;6.10;;;;;;;6.44;100.00;100386.97;5252370;28;20029;-71
2024/01/01 20:44:28;;;;;;;14.27;5.50;;;;;;;6.45;100.00;100393.88;5253337;28;20040;-70
2024/01/01 20:47:00;;;;;;;17.13;4.67;;;;;;;6.40;100.00;100390.66;5242974;28;20033;-71
2024/01/01 20:49:31;;;;;;;20.27;6.17;;;;;;;6.45;100.00;100388.66;5254633;28;20056;-73
2024/01/01 20:52:03;;;;;;;16.40;6.17;;;;;;;6.41;100.00;100382.75;5256067;28;20510;-69
2024/01/01 20:54:34;;;;;;;16.57;5.03;;;;;;;6.29;100.00;100367.75;5253874;28;20379;-71
2024/01/01 20:57:05;;;;;;;17.53;4.70;;;;;;;6.42;100.00;100373.22;5254062;28;20479;-72
2024/01/01 20:59:37;;;;;;;18.10;7.40;;;;;;;6.42;100.00;100373.22;5258960;28;20025;-71
2024/01/01 21:02:08;;;;;;;16.30;4.23;;;;;;;6.33;100.00;100360.66;5254459;28;20070;-70
2024/01/01 21:04:40;;;;;;;19.30;5.63;;;;;;;6.32;100.00;100361.59;5254644;28;20146;-72
2024/01/01 21:07:12;;;;;;;26.97;7.60;;;;;;;6.16;100.00;100357.13;5256622;28;20036;-70
2024/01/01 21:09:43;;;;;;;17.70;6.60;;;;;;;6.28;100.00;100369.50;5254752;28;20025;-71
2024/01/01 21:12:14;;;;;;;20.03;5.63;;;;;;;6.35;100.00;100353.63;5272480;28;20028;-69
2024/01/01 21:14:46;;;;;;;25.70;5.37;;;;;;;6.36;100.00;100348.34;5260602;28;20037;-70
2024/01/01 21:17:17;;;;;;;16.47;5.73;;;;;;;6.35;100.00;100343.22;5253310;28;20037;-70
2024/01/01 21:19:49;;;;;;;18.03;5.73;;;;;;;6.34;100.00;100333.72;5251235;28;20464;-68
2024/01/01 21:22:20;;;;;;;17.03;4.13;;;;;;;6.34;100.00;100333.72;5275658;28;20028;-72
2024/01/01 21:24:51;;;;;;;15.63;4.73;;;;;;;6.35;100.00;100330.22;5247666;28;20092;-72
2024/01/01 21:27:23;;;;;;;18.03;4.40;;;;;;;6.33;100.00;100327.69;5247029;28;20057;-70
2024/01/01 21:29:54;;;;;;;15.70;4.97;;;;;;;6.36;100.00;100321.47;5258962;28;20022;-70
2024/01/01 21:32:25;;;;;;;20.90;5.83;;;;;;;6.33;100.00;100322.50;5267115;28;20021;-70
2024/01/01 21:34:57;;;;;;;15.20;4.90;;;;;;;6.39;100.00;100326.50;5260276;28;20029;-70
2024/01/01 21:37:28;;;;;;;19.20;5.73;;;;;;;6.23;100.00;100303.88;5249150;28;20022;-70
2024/01/01 21:39:59;;;;;;;22.93;5.37;;;;;;;6.26;100.00;100303.75;5248363;28;20063;-70
2024/01/01 21:42:31;;;;;;;22.77;5.03;;;;;;;6.37;100.00;100310.16;5252710;28;20487;-69
2024/01/01 21:45:02;;;;;;;15.63;4.20;;;;;;;6.38;100.00;100307.50;5237293;28;20025;-70
2024/01/01 21:47:34;;;;;;;24.20;5.10;;;;;;;6.38;100.00;100296.22;5238222;28;20094;-69
2024/01/01 21:50:05;;;;;;;14.63;4.93;;;;;;;6.36;100.00;100287.66;5236733;28;20393;-70
2024/01/01 21:52:37;;;;;;;20.40;5.30;;;;;;;6.32;100.00;100275.75;5244987;28;20542;-71
2024/01/01 21:55:08;;;;;;;14.70;4.57;;;;;;;6.39;100.00;100271.88;5245117;28;20025;-70
2024/01/01 21:57:40;;;;;;;19.40;4.73;;;;;;;6.42;100.00;100276.97;5248887;28;20021;-71
2024/01/01 22:00:13;;;;;;;12.17;3.97;;;;;;;6.44;100.00;100266.47;5268590;28;20052;-71
2024/01/01 22:02:47;;;;;;;14.80;5.43;;;;;;;6.43;100.00;100265.63;5246806;28;20025;-70
2024/01/01 22:05:18;;;;;;;16.20;4.37;;;;;;;6.33;100.00;100249.66;5233887;28;20055;-67
2024/01/01 22:07:52;;;;;;;12.57;2.93;;;;;;;6.28;100.00;100247.28;5234002;28;20476;-70
2024/01/01 22:10:23;;;;;;;15.90;3.47;;;;;;;6.40;100.00;100242.38;5253075;28;20059;-70
2024/01/01 22:12:54;;;;;;;16.30;3.70;;;;;;;6.27;100.00;100229.16;5253947;28;20024;-69